»·PEaware :: SWA717 KDEN-KSLC

SWA717 :: KDEN-KSLC

FLIGHT INFORMATION

Flight Status: Arrived
Operator:
Southwest Airlines
More flights by this operator :: More flights under this callsign
Pilot: Ty S. (2873)
Aircraft: BOEING 737-800
(B738)
More flights by this aircraft type
Origin: KDEN Denver Intl
United States
Destination: KSLC Salt Lake City Intl
United States
More flights between these airports :: More routes between these airports
Route: +ZIMMR1 CHNGY EKR LEEHY5
File this flight plan on PilotEdge
Remarks: RMK / SIMBRIEF
Altitude:
(Current/Filed)
36,000ft
Speed:
(Current/Filed)
454kts
Departed: 12-Jun-20 04:07 PM
Arrived: 12-Jun-20 05:14 PM
Distance/Time
Traveled:
339nm/1:07
Distance/Time
To Go:
Arrived

Flight Plot

Page will automatically refresh every two minutes.

Flight plan parsing failed; only flown route is shown


Map Options




Map Legend


Flown Route
Filed Route
Departure Airport
Arrival Airport
Navaid (VOR, NDB)
Fix

Horizontal Profiles

Position Reports

Time Latitude Longitude Heading Altitude Ground
Speed
12-Jun-20 15:04 39.863537 -104.674786 196 5442ft 0kts
12-Jun-20 15:05 39.863537 -104.674786 196 5442ft 0kts
12-Jun-20 15:06 39.863537 -104.674786 196 5442ft 0kts
12-Jun-20 15:07 39.863537 -104.674786 196 5442ft 0kts
12-Jun-20 15:08 39.863537 -104.674786 196 5442ft 0kts
12-Jun-20 15:09 39.863537 -104.674786 196 5442ft 0kts
12-Jun-20 15:10 39.863537 -104.674786 196 5442ft 0kts
12-Jun-20 15:11 39.863537 -104.674786 196 5442ft 0kts
12-Jun-20 15:12 39.863537 -104.674786 196 5442ft 0kts
12-Jun-20 15:13 39.863537 -104.674786 196 5442ft 0kts
12-Jun-20 15:14 39.863537 -104.674786 196 5442ft 0kts
12-Jun-20 15:15 39.863537 -104.674786 196 5442ft 0kts
12-Jun-20 15:16 39.863537 -104.674786 196 5442ft 0kts
12-Jun-20 15:17 39.863537 -104.674786 196 5442ft 0kts
12-Jun-20 15:18 39.863537 -104.674786 196 5442ft 0kts
12-Jun-20 15:19 39.863537 -104.674786 196 5442ft 0kts
12-Jun-20 15:20 39.863537 -104.674786 196 5442ft 0kts
12-Jun-20 15:21 39.863537 -104.674786 196 5442ft 0kts
12-Jun-20 15:22 39.863537 -104.674786 196 5442ft 0kts
12-Jun-20 15:23 39.863537 -104.674786 196 5442ft 0kts
12-Jun-20 15:24 39.863537 -104.674786 196 5442ft 0kts
12-Jun-20 15:25 39.863537 -104.674786 196 5442ft 0kts
12-Jun-20 15:26 39.863537 -104.674786 196 5442ft 0kts
12-Jun-20 15:27 39.863537 -104.674786 196 5442ft 0kts
12-Jun-20 15:28 39.863537 -104.674786 196 5442ft 0kts
12-Jun-20 15:29 39.863537 -104.674786 196 5442ft 0kts
12-Jun-20 15:30 39.863537 -104.674786 196 5442ft 0kts
12-Jun-20 15:31 39.863537 -104.674786 196 5442ft 0kts
12-Jun-20 15:32 39.863537 -104.674786 196 5442ft 0kts
12-Jun-20 15:33 39.863537 -104.674786 196 5442ft 0kts
12-Jun-20 15:34 39.863537 -104.674786 196 5442ft 0kts
12-Jun-20 15:35 39.863537 -104.674786 196 5442ft 0kts
12-Jun-20 15:36 39.863537 -104.674786 196 5442ft 0kts
12-Jun-20 15:37 39.863537 -104.674786 196 5442ft 0kts
12-Jun-20 15:38 39.863537 -104.674786 196 5441ft 0kts
12-Jun-20 15:39 39.863537 -104.674786 196 5441ft 0kts
12-Jun-20 15:40 39.863537 -104.674786 196 5441ft 0kts
12-Jun-20 15:41 39.863537 -104.674786 196 5441ft 0kts
12-Jun-20 15:42 39.863537 -104.674786 196 5441ft 0kts
12-Jun-20 15:43 39.863537 -104.674786 196 5441ft 0kts
12-Jun-20 15:44 39.863537 -104.674786 196 5441ft 0kts
12-Jun-20 15:45 39.863537 -104.674786 196 5441ft 0kts
12-Jun-20 15:46 39.863537 -104.674786 196 5441ft 0kts
12-Jun-20 15:47 39.863537 -104.674786 196 5441ft 0kts
12-Jun-20 15:48 39.863537 -104.674786 196 5441ft 0kts
12-Jun-20 15:49 39.863537 -104.674786 196 5441ft 0kts
12-Jun-20 15:50 39.863540 -104.674785 196 5442ft 0kts
12-Jun-20 15:51 39.864106 -104.674566 196 5442ft 2kts
12-Jun-20 15:52 39.864543 -104.674398 196 5442ft 0kts
12-Jun-20 15:53 39.864543 -104.674398 196 5442ft 0kts
12-Jun-20 15:54 39.864543 -104.674398 196 5441ft 0kts
12-Jun-20 15:55 39.864116 -104.673469 86 5441ft 9kts
12-Jun-20 15:56 39.864257 -104.672049 354 5441ft 4kts
12-Jun-20 15:57 39.864177 -104.676237 264 5441ft 14kts
12-Jun-20 15:58 39.864387 -104.680512 276 5441ft 9kts
12-Jun-20 15:59 39.865168 -104.683865 356 5442ft 15kts
12-Jun-20 16:00 39.870559 -104.683801 359 5441ft 19kts
12-Jun-20 16:01 39.874905 -104.684421 282 5442ft 8kts
12-Jun-20 16:02 39.879114 -104.684832 359 5441ft 18kts
12-Jun-20 16:03 39.885028 -104.684763 0 5441ft 24kts
12-Jun-20 16:04 39.892155 -104.684699 1 5441ft 26kts
12-Jun-20 16:05 39.896748 -104.684819 290 5441ft 6kts
12-Jun-20 16:06 39.892088 -104.686861 179 5442ft 88kts
12-Jun-20 16:07 39.847469 -104.691038 203 6535ft 193kts
12-Jun-20 16:08 39.836646 -104.762289 305 7674ft 277kts
12-Jun-20 16:09 39.891563 -104.843020 309 9957ft 318kts
12-Jun-20 16:10 39.933164 -104.947357 271 11502ft 344kts
12-Jun-20 16:11 39.936126 -105.072806 272 14234ft 352kts
12-Jun-20 16:12 39.939037 -105.202730 272 16593ft 365kts
12-Jun-20 16:13 39.948233 -105.335918 277 18861ft 375kts
12-Jun-20 16:14 39.959048 -105.472766 277 21028ft 384kts
12-Jun-20 16:15 39.969909 -105.612744 277 23064ft 392kts
12-Jun-20 16:16 39.978578 -105.753841 274 24859ft 402kts
12-Jun-20 16:17 39.985743 -105.900396 275 26569ft 410kts
12-Jun-20 16:18 39.993166 -106.050890 275 28105ft 419kts
12-Jun-20 16:19 40.000574 -106.203611 275 29511ft 427kts
12-Jun-20 16:20 40.007934 -106.358943 275 30792ft 433kts
12-Jun-20 16:21 40.014976 -106.516120 275 32303ft 431kts
12-Jun-20 16:22 40.021249 -106.670915 274 33825ft 426kts
12-Jun-20 16:23 40.027624 -106.823778 274 35232ft 421kts
12-Jun-20 16:24 40.033884 -106.974876 273 36309ft 418kts
12-Jun-20 16:25 40.039966 -107.125286 272 36328ft 414kts
12-Jun-20 16:26 40.045858 -107.275513 272 36336ft 415kts
12-Jun-20 16:27 40.051565 -107.425644 272 36308ft 414kts
12-Jun-20 16:29 40.057094 -107.576129 272 36281ft 414kts
12-Jun-20 16:30 40.062291 -107.723091 272 36285ft 414kts
12-Jun-20 16:31 40.067388 -107.872896 272 36284ft 414kts
12-Jun-20 16:32 40.072683 -108.023299 272 36284ft 414kts
12-Jun-20 16:33 40.079070 -108.173574 273 36282ft 414kts
12-Jun-20 16:34 40.085707 -108.323868 273 36282ft 415kts
12-Jun-20 16:35 40.092263 -108.474438 273 36281ft 414kts
12-Jun-20 16:36 40.098626 -108.624378 273 36252ft 415kts
12-Jun-20 16:37 40.104150 -108.759114 272 36223ft 412kts
12-Jun-20 16:38 40.110048 -108.909212 272 36202ft 415kts
12-Jun-20 16:39 40.115102 -109.059800 271 36191ft 412kts
12-Jun-20 16:40 40.120428 -109.208436 271 36190ft 408kts
12-Jun-20 16:41 40.125700 -109.356099 271 36189ft 409kts
12-Jun-20 16:42 40.130863 -109.504631 271 36188ft 409kts
12-Jun-20 16:43 40.135740 -109.649766 271 36187ft 409kts
12-Jun-20 16:44 40.140476 -109.797862 271 36192ft 408kts
12-Jun-20 16:44 40.144316 -109.921470 271 36192ft 408kts
12-Jun-20 16:46 40.149503 -110.094659 271 36192ft 409kts
12-Jun-20 16:47 40.149518 -110.243157 267 35791ft 406kts
12-Jun-20 16:47 40.147767 -110.365033 268 34943ft 402kts
12-Jun-20 16:48 40.146190 -110.512620 268 33928ft 408kts
12-Jun-20 16:50 40.144861 -110.680631 268 32371ft 395kts
12-Jun-20 16:50 40.143368 -110.800378 267 31510ft 400kts
12-Jun-20 16:51 40.141369 -110.944093 266 30494ft 389kts
12-Jun-20 16:53 40.139065 -111.107597 265 29307ft 383kts
12-Jun-20 16:53 40.137326 -111.222739 264 28453ft 379kts
12-Jun-20 16:54 40.134324 -111.360234 263 27233ft 374kts
12-Jun-20 16:55 40.131802 -111.493561 264 25347ft 362kts
12-Jun-20 16:57 40.167536 -111.642636 294 22884ft 376kts
12-Jun-20 16:57 40.232492 -111.715902 309 21201ft 383kts
12-Jun-20 16:58 40.272972 -111.833132 282 19971ft 344kts
12-Jun-20 16:59 40.304070 -111.955203 316 17162ft 383kts
12-Jun-20 17:00 40.391318 -112.027949 328 15643ft 369kts
12-Jun-20 17:01 40.490661 -112.058745 352 13664ft 370kts
12-Jun-20 17:02 40.592309 -112.072635 353 11767ft 362kts
12-Jun-20 17:03 40.689392 -112.084718 354 11041ft 341kts
12-Jun-20 17:04 40.784926 -112.095827 354 11037ft 344kts
12-Jun-20 17:05 40.876900 -112.106730 354 11049ft 326kts
12-Jun-20 17:06 40.961390 -112.116131 353 9445ft 286kts
12-Jun-20 17:07 41.029837 -112.092563 58 8008ft 244kts
12-Jun-20 17:08 41.012092 -112.025784 155 7687ft 212kts
12-Jun-20 17:09 40.953628 -112.015005 180 7156ft 219kts
12-Jun-20 17:10 40.900317 -112.010349 174 6171ft 159kts
12-Jun-20 17:11 40.855413 -112.004264 174 5258ft 155kts
12-Jun-20 17:12 40.812117 -111.999779 173 4392ft 155kts
12-Jun-20 17:13 40.786069 -111.996601 164 4238ft 29kts
12-Jun-20 17:14 40.784570 -111.993547 20 4237ft 11kts
12-Jun-20 17:15 40.787097 -111.990841 86 4237ft 19kts
12-Jun-20 17:16 40.789704 -111.986094 50 4238ft 18kts
12-Jun-20 17:17 40.789653 -111.978909 167 4238ft 4kts
12-Jun-20 17:18 40.789203 -111.978808 171 4237ft 0kts
12-Jun-20 17:19 40.789203 -111.978808 171 4237ft 0kts
12-Jun-20 17:20 40.789203 -111.978808 171 4237ft 0kts
12-Jun-20 17:21 40.789203 -111.978808 171 4237ft 0kts
12-Jun-20 17:22 40.789203 -111.978808 171 4237ft 0kts
12-Jun-20 17:23 40.789203 -111.978808 171 4237ft 0kts
12-Jun-20 17:24 40.789203 -111.978808 171 4237ft 0kts
12-Jun-20 17:25 40.789203 -111.978808 171 4237ft 0kts
12-Jun-20 17:26 40.789203 -111.978808 171 4237ft 0kts
12-Jun-20 17:27 40.789203 -111.978808 171 4237ft 0kts

Navigation Log

Ident Type
Flight plan parsing failed, navigation log unavailable